Port Charlotte, Florida
Current Conditions -  °F | °C
As of 12:53 PM on Saturday 20 Dec 2014 (Local Time) from KPGD Reporting Station
Clear Clear  
Wind Chill: 25°   Ceiling: Unl
Heat Index: 26°   Visibility: 10mi
Dew Point: 15°   Wind: 6mph
Humidity: 54%   Direction: 210°SSW
Pressure: 30.07"   Gusts: NA
Location:  26.98°N, 82.1°W
Report Text: KPGD 201753Z 21005KT 10SM CLR 25/15 A3007 RMK AO2 SLP182 T02500150 10256 20100 58025
Loading
Personal Weather Stations






























Interactive Weather Map New forecast layout! Learn more

10-Day Weather Forecast

Advertisements
Track Severe Weather on mobile